Terminal Aerodrome Forecast
Issued by NWS Jackson, KY

Home | Current Version | Previous Version | Text Only | Print | Product List | Glossary On
Versions: 1 2 3 4 5 6 7 8 9 10 11 12 13 14 15
000
FTUS43 KJKL 010648 AAB
TAFJKL
TAF AMD
KJKL 010648Z 0107/0206 VRB05KT 3SM BR BKN003 OVC050
      TEMPO 0107/0110 1/2SM FG VV001
     FM011300 VRB05KT P6SM SCT010 BKN050=

USA.gov is the U.S. government's official web portal to all federal, state and local government web resources and services.